Time;durP1;ratioP1;P1;durP2;ratioP2;P2;SDS_P1;SDS_P2;PMS_P1;PMS_P2;Temp;Humidity;BMP_temperature;BMP_pressure;BME280_temperature;BME280_humidity;BME280_pressure;Samples;Min_cycle;Max_cycle;Signal;HPM_P1;HPM_P2
2023/04/26 00:00:32;;;;;;;3.97;2.20;;;;;;;3.47;100.00;92918.66;2519801;23;20002;-82
2023/04/26 00:01:34;;;;;;;2.53;2.33;;;;;;;3.46;100.00;92919.03;2507810;23;20002;-83
2023/04/26 00:02:36;;;;;;;2.65;2.20;;;;;;;3.47;100.00;92915.28;2485303;23;20011;-83
2023/04/26 00:03:39;;;;;;;3.25;2.38;;;;;;;3.50;100.00;92917.91;2484894;23;20083;-82
2023/04/26 00:04:40;;;;;;;2.90;2.60;;;;;;;3.48;100.00;92914.88;2497256;23;20014;-82
2023/04/26 00:05:43;;;;;;;3.25;2.20;;;;;;;3.43;100.00;92912.63;2496621;23;20022;-81
2023/04/26 00:06:44;;;;;;;3.00;2.03;;;;;;;3.44;100.00;92918.66;2496542;23;20013;-81
2023/04/26 00:07:49;;;;;;;3.53;2.30;;;;;;;3.38;100.00;92915.63;2496143;23;20011;-83
2023/04/26 00:08:52;;;;;;;2.63;1.98;;;;;;;3.29;100.00;92917.84;2497326;23;20004;-82
2023/04/26 00:09:54;;;;;;;2.38;2.03;;;;;;;3.32;100.00;92917.13;2507912;23;20561;-82
2023/04/26 00:10:56;;;;;;;2.35;2.15;;;;;;;3.42;100.00;92912.97;2508437;23;20003;-82
2023/04/26 00:11:58;;;;;;;2.67;2.45;;;;;;;3.44;100.00;92919.41;2508245;23;20609;-81
2023/04/26 00:12:59;;;;;;;5.25;2.33;;;;;;;3.42;100.00;92915.63;2495282;23;20008;-82
2023/04/26 00:14:00;;;;;;;2.75;2.33;;;;;;;3.45;100.00;92925.44;2495044;23;20007;-83
2023/04/26 00:15:05;;;;;;;3.25;2.95;;;;;;;3.40;100.00;92923.19;2496412;23;20006;-83
2023/04/26 00:16:06;;;;;;;4.13;2.40;;;;;;;3.42;100.00;92912.97;2508423;23;19999;-81
2023/04/26 00:17:07;;;;;;;2.90;2.35;;;;;;;3.39;100.00;92914.50;2507918;23;20442;-82
2023/04/26 00:18:08;;;;;;;3.15;2.53;;;;;;;3.43;100.00;92914.50;2496362;23;20003;-82
2023/04/26 00:19:09;;;;;;;4.75;2.63;;;;;;;3.39;100.00;92921.66;2496670;23;20051;-81
2023/04/26 00:20:11;;;;;;;3.67;2.70;;;;;;;3.39;100.00;92921.66;2507022;23;20003;-82
2023/04/26 00:21:12;;;;;;;4.78;2.75;;;;;;;3.40;100.00;92917.88;2508841;23;20391;-81
2023/04/26 00:22:14;;;;;;;3.25;2.90;;;;;;;3.42;100.00;92919.00;2519749;23;20033;-83
2023/04/26 00:23:16;;;;;;;4.55;2.92;;;;;;;3.45;100.00;92918.28;2496469;23;20007;-83
2023/04/26 00:24:17;;;;;;;4.70;3.65;;;;;;;3.44;100.00;92906.19;2497058;23;20450;-83
2023/04/26 00:25:18;;;;;;;4.30;3.38;;;;;;;3.45;100.00;92907.69;2496426;23;20031;-82
2023/04/26 00:26:20;;;;;;;3.97;3.20;;;;;;;3.40;100.00;92915.25;2496250;23;20015;-81
2023/04/26 00:27:27;;;;;;;3.70;3.00;;;;;;;3.41;100.00;92906.94;2519709;23;20010;-82
2023/04/26 00:28:28;;;;;;;3.63;3.05;;;;;;;3.39;100.00;92908.47;2507866;23;20018;-82
2023/04/26 00:29:30;;;;;;;4.15;3.25;;;;;;;3.32;100.00;92917.13;2496713;23;20014;-82
2023/04/26 00:30:33;;;;;;;4.70;3.10;;;;;;;3.33;100.00;92915.22;2508038;23;20034;-82
2023/04/26 00:31:34;;;;;;;3.30;2.80;;;;;;;3.50;100.00;92917.91;2508541;23;20027;-82
2023/04/26 00:32:35;;;;;;;3.63;2.53;;;;;;;3.47;100.00;92916.03;2508545;23;20469;-82
2023/04/26 00:33:36;;;;;;;3.50;3.00;;;;;;;3.46;100.00;92917.13;2507765;23;20007;-83
2023/04/26 00:34:37;;;;;;;4.45;2.97;;;;;;;3.44;100.00;92919.41;2508244;23;20007;-83
2023/04/26 00:35:38;;;;;;;3.17;2.88;;;;;;;3.51;100.00;92919.44;2508180;23;20146;-82
2023/04/26 00:36:39;;;;;;;3.20;2.90;;;;;;;3.47;100.00;92910.00;2496180;23;20449;-82
2023/04/26 00:37:41;;;;;;;5.93;3.08;;;;;;;3.45;100.00;92920.16;2496425;23;20098;-83
2023/04/26 00:38:43;;;;;;;3.20;2.78;;;;;;;3.34;100.00;92920.16;2507993;23;20010;-83
2023/04/26 00:39:45;;;;;;;4.78;3.15;;;;;;;3.36;100.00;92922.41;2496704;23;20003;-83
2023/04/26 00:40:46;;;;;;;3.42;3.10;;;;;;;3.37;100.00;92918.63;2484505;23;20018;-83
2023/04/26 00:41:47;;;;;;;4.22;3.00;;;;;;;3.38;100.00;92917.50;2483992;23;20007;-81
2023/04/26 00:42:55;;;;;;;3.50;3.17;;;;;;;3.39;100.00;92922.41;2484943;23;20436;-83
2023/04/26 00:43:56;;;;;;;4.95;2.85;;;;;;;3.42;100.00;92915.63;2487674;23;20350;-81
2023/04/26 00:44:57;;;;;;;5.35;3.50;;;;;;;3.27;100.00;92915.59;2508348;23;20003;-82
2023/04/26 00:45:58;;;;;;;4.53;3.30;;;;;;;3.37;100.00;92906.16;2507750;23;20007;-83
2023/04/26 00:47:00;;;;;;;3.80;3.13;;;;;;;3.39;100.00;92916.38;2496235;23;20007;-83
2023/04/26 00:48:02;;;;;;;4.22;3.30;;;;;;;3.35;100.00;92905.81;2496780;23;20018;-82
2023/04/26 00:49:03;;;;;;;6.03;3.63;;;;;;;3.39;100.00;92914.50;2496660;23;20013;-83
2023/04/26 00:50:06;;;;;;;5.53;3.78;;;;;;;3.43;100.00;92912.63;2496262;23;20498;-82
2023/04/26 00:51:08;;;;;;;6.53;3.72;;;;;;;3.46;100.00;92911.84;2509412;23;20007;-81
2023/04/26 00:52:10;;;;;;;5.40;3.75;;;;;;;3.42;100.00;92913.72;2531868;23;20018;-83
2023/04/26 00:53:13;;;;;;;7.15;3.92;;;;;;;3.46;100.00;92911.84;2507855;23;20008;-81
2023/04/26 00:54:14;;;;;;;4.55;3.60;;;;;;;3.47;100.00;92908.09;2496650;23;20328;-82
2023/04/26 00:55:16;;;;;;;4.70;3.80;;;;;;;3.43;100.00;92912.63;2519859;23;20017;-82
2023/04/26 00:56:17;;;;;;;4.68;4.05;;;;;;;3.46;100.00;92916.38;2520128;23;20010;-83
2023/04/26 00:57:19;;;;;;;4.57;3.80;;;;;;;3.47;100.00;92920.56;2496382;23;20015;-83
2023/04/26 00:58:20;;;;;;;8.27;4.50;;;;;;;3.44;100.00;92918.66;2508485;23;20453;-82
2023/04/26 00:59:22;;;;;;;7.00;4.32;;;;;;;3.45;100.00;92920.91;2508234;23;20007;-82
2023/04/26 01:00:24;;;;;;;5.13;4.05;;;;;;;3.40;100.00;92910.72;2507552;23;20097;-81
2023/04/26 01:01:25;;;;;;;5.50;4.10;;;;;;;3.46;100.00;92922.41;2508347;23;20011;-82
2023/04/26 01:02:26;;;;;;;4.82;4.22;;;;;;;3.54;100.00;92923.19;2507932;23;20498;-83
2023/04/26 01:03:28;;;;;;;6.20;4.00;;;;;;;3.47;100.00;92917.91;2496413;23;20042;-80
2023/04/26 01:04:29;;;;;;;5.40;4.10;;;;;;;3.50;100.00;92917.91;2496914;23;20093;-83
2023/04/26 01:05:31;;;;;;;5.80;4.07;;;;;;;3.48;100.00;92922.06;2495902;23;20011;-81
2023/04/26 01:06:37;;;;;;;5.63;3.90;;;;;;;3.48;100.00;92922.81;2484166;23;20003;-83
2023/04/26 01:07:38;;;;;;;5.82;4.32;;;;;;;3.52;100.00;92917.53;2497003;23;20014;-82
2023/04/26 01:08:40;;;;;;;4.72;3.83;;;;;;;3.47;100.00;92921.31;2484844;23;20031;-83
2023/04/26 01:09:42;;;;;;;5.22;4.53;;;;;;;3.45;100.00;92920.91;2496653;23;20007;-83
2023/04/26 01:10:43;;;;;;;6.20;3.97;;;;;;;3.46;100.00;92917.13;2508229;23;20073;-83
2023/04/26 01:11:46;;;;;;;5.60;4.03;;;;;;;3.40;100.00;92920.53;2508075;23;20006;-82
2023/04/26 01:12:47;;;;;;;4.38;3.97;;;;;;;3.42;100.00;92915.63;2508120;23;20018;-82
2023/04/26 01:13:50;;;;;;;5.43;4.10;;;;;;;3.47;100.00;92915.28;2507428;23;20014;-83
2023/04/26 01:14:52;;;;;;;5.28;3.95;;;;;;;3.46;100.00;92906.56;2497038;23;20771;-83
2023/04/26 01:15:55;;;;;;;5.88;4.13;;;;;;;3.51;100.00;92913.38;2508295;23;20010;-83
2023/04/26 01:16:56;;;;;;;3.90;3.53;;;;;;;3.49;100.00;92910.34;2508637;23;20007;-81
2023/04/26 01:17:57;;;;;;;5.63;4.07;;;;;;;3.43;100.00;92904.69;2519433;23;20398;-82
2023/04/26 01:19:11;;;;;;;8.38;4.15;;;;;;;3.43;100.00;92912.63;2508132;23;20015;-82
2023/04/26 01:20:13;;;;;;;5.80;3.83;;;;;;;3.43;100.00;92907.34;2510511;23;20019;-83
2023/04/26 01:21:20;;;;;;;8.05;4.28;;;;;;;3.39;100.00;92911.84;2508009;23;20065;-83
2023/04/26 01:22:21;;;;;;;4.78;4.03;;;;;;;3.35;100.00;92908.44;2498504;23;20435;-82
2023/04/26 01:23:22;;;;;;;5.25;3.63;;;;;;;3.37;100.00;92911.47;2495772;23;20011;-82
2023/04/26 01:24:23;;;;;;;4.50;3.58;;;;;;;3.34;100.00;92909.59;2495605;23;20389;-82
2023/04/26 01:25:24;;;;;;;5.80;3.90;;;;;;;3.39;100.00;92898.66;2495876;23;20431;-83
2023/04/26 01:26:26;;;;;;;7.57;4.38;;;;;;;3.38;100.00;92909.56;2496327;23;20003;-82
2023/04/26 01:27:27;;;;;;;4.63;3.70;;;;;;;3.43;100.00;92912.63;2496302;23;20796;-83
2023/04/26 01:28:28;;;;;;;5.10;3.85;;;;;;;3.41;100.00;92909.59;2508064;23;20014;-83
2023/04/26 01:29:31;;;;;;;4.72;3.90;;;;;;;3.40;100.00;92907.31;2484676;23;20041;-82
2023/04/26 01:30:33;;;;;;;8.52;4.07;;;;;;;3.43;100.00;92909.97;2484359;23;20023;-82
2023/04/26 01:31:33;;;;;;;5.70;3.88;;;;;;;3.42;100.00;92912.97;2484859;23;20008;-81
2023/04/26 01:32:35;;;;;;;4.47;4.07;;;;;;;3.39;100.00;92908.47;2484025;23;20398;-82
2023/04/26 01:33:36;;;;;;;6.00;4.15;;;;;;;3.43;100.00;92906.59;2519745;23;20508;-81
2023/04/26 01:34:39;;;;;;;5.97;4.00;;;;;;;3.43;100.00;92902.06;2519650;23;20014;-82
2023/04/26 01:35:40;;;;;;;6.10;4.00;;;;;;;3.50;100.00;92902.03;2485197;23;20584;-83
2023/04/26 01:36:41;;;;;;;7.03;4.10;;;;;;;3.53;100.00;92906.59;2495563;23;20007;-83
2023/04/26 01:37:43;;;;;;;5.10;3.88;;;;;;;3.52;100.00;92914.91;2496014;23;20091;-82
2023/04/26 01:38:45;;;;;;;5.05;3.92;;;;;;;3.52;100.00;92905.09;2507948;23;20003;-82
2023/04/26 01:39:46;;;;;;;4.43;3.80;;;;;;;3.50;100.00;92912.63;2508088;23;20014;-83
2023/04/26 01:40:47;;;;;;;3.72;3.28;;;;;;;3.57;100.00;92905.84;2508001;23;20777;-81
2023/04/26 01:41:48;;;;;;;8.95;2.88;;;;;;;3.44;100.00;92908.09;2507579;23;20283;-82
2023/04/26 01:42:49;;;;;;;6.18;3.47;;;;;;;3.36;100.00;92907.31;2495582;23;20018;-84
2023/04/26 01:43:52;;;;;;;7.20;2.88;;;;;;;3.35;100.00;92905.06;2519339;23;20427;-83
2023/04/26 01:44:54;;;;;;;3.13;2.90;;;;;;;3.42;100.00;92911.09;2519852;23;20081;-81
2023/04/26 01:45:59;;;;;;;3.53;3.03;;;;;;;3.38;100.00;92905.06;2496156;23;20439;-82
2023/04/26 01:47:01;;;;;;;4.13;3.03;;;;;;;3.35;100.00;92905.06;2497033;23;20392;-82
2023/04/26 01:48:02;;;;;;;5.38;3.28;;;;;;;3.37;100.00;92906.16;2496128;23;20062;-82
2023/04/26 01:49:03;;;;;;;8.65;3.22;;;;;;;3.26;100.00;92903.53;2495781;23;20014;-83
2023/04/26 01:50:05;;;;;;;3.67;2.95;;;;;;;3.32;100.00;92901.25;2507716;23;20443;-82
2023/04/26 01:51:06;;;;;;;4.97;3.30;;;;;;;3.36;100.00;92896.00;2507918;23;20007;-82
2023/04/26 01:52:09;;;;;;;5.78;3.00;;;;;;;3.48;100.00;92899.03;2495638;23;20385;-83
2023/04/26 01:53:11;;;;;;;3.97;3.40;;;;;;;3.35;100.00;92905.06;2508278;23;20014;-82
2023/04/26 01:54:12;;;;;;;6.18;3.40;;;;;;;3.36;100.00;92896.00;2507227;23;20069;-83
2023/04/26 01:55:13;;;;;;;4.40;3.17;;;;;;;3.33;100.00;92891.44;2495715;23;20164;-82
2023/04/26 01:56:15;;;;;;;3.78;3.33;;;;;;;3.22;100.00;92899.38;2496464;23;20486;-83
2023/04/26 01:57:16;;;;;;;4.97;3.60;;;;;;;3.22;100.00;92894.84;2507713;23;20011;-81
2023/04/26 01:58:17;;;;;;;4.53;2.95;;;;;;;3.30;100.00;92895.63;2508132;23;20003;-83
2023/04/26 01:59:18;;;;;;;4.05;3.50;;;;;;;3.32;100.00;92895.22;2507718;23;20006;-82
2023/04/26 02:00:19;;;;;;;4.45;3.10;;;;;;;3.35;100.00;92889.97;2495102;23;20051;-83
2023/04/26 02:01:21;;;;;;;6.65;3.63;;;;;;;3.29;100.00;92891.44;2495455;23;20011;-83
2023/04/26 02:02:23;;;;;;;4.72;3.20;;;;;;;3.33;100.00;92897.47;2496233;23;20058;-81
2023/04/26 02:03:24;;;;;;;4.47;3.30;;;;;;;3.31;100.00;92894.47;2508251;23;20054;-83
2023/04/26 02:04:26;;;;;;;5.28;3.08;;;;;;;3.35;100.00;92894.50;2507864;23;20030;-82
2023/04/26 02:05:28;;;;;;;4.13;3.03;;;;;;;3.25;100.00;92901.25;2496298;23;20014;-83
2023/04/26 02:06:30;;;;;;;4.03;3.10;;;;;;;3.27;100.00;92897.09;2484757;23;20015;-83
2023/04/26 02:07:33;;;;;;;6.20;3.67;;;;;;;3.28;100.00;92898.59;2496291;23;20078;-83
2023/04/26 02:08:34;;;;;;;3.40;3.00;;;;;;;3.32;100.00;92909.19;2507862;23;20009;-83
2023/04/26 02:09:37;;;;;;;7.05;3.42;;;;;;;3.57;100.00;92901.31;2495788;23;20018;-82
2023/04/26 02:10:38;;;;;;;5.63;3.58;;;;;;;3.43;100.00;92902.06;2507999;23;20013;-83
2023/04/26 02:11:39;;;;;;;5.70;3.55;;;;;;;3.36;100.00;92909.19;2508146;23;20010;-83
2023/04/26 02:12:40;;;;;;;4.82;3.20;;;;;;;3.29;100.00;92907.28;2507241;23;20014;-82
2023/04/26 02:13:42;;;;;;;6.75;3.10;;;;;;;3.31;100.00;92910.31;2507373;23;20085;-81
2023/04/26 02:14:43;;;;;;;5.65;3.35;;;;;;;3.16;100.00;92914.81;2508057;23;20062;-82
2023/04/26 02:15:47;;;;;;;7.03;3.08;;;;;;;3.14;100.00;92905.75;2507837;23;20692;-82
2023/04/26 02:16:48;;;;;;;3.95;3.10;;;;;;;3.19;100.00;92916.69;2508829;23;20017;-84
2023/04/26 02:17:49;;;;;;;5.22;2.80;;;;;;;3.23;100.00;92908.78;2496134;23;20011;-82
2023/04/26 02:18:52;;;;;;;3.53;2.83;;;;;;;3.22;100.00;92904.66;2495595;23;20011;-81
2023/04/26 02:19:52;;;;;;;6.53;3.03;;;;;;;3.24;100.00;92905.78;2496140;23;20015;-82
2023/04/26 02:20:53;;;;;;;5.88;3.40;;;;;;;3.22;100.00;92909.94;2507679;23;20003;-82
2023/04/26 02:21:57;;;;;;;3.85;3.10;;;;;;;3.15;100.00;92907.25;2507927;23;20030;-82
2023/04/26 02:22:59;;;;;;;5.30;3.40;;;;;;;3.22;100.00;92909.94;2508281;23;20006;-82
2023/04/26 02:24:00;;;;;;;5.65;3.00;;;;;;;3.26;100.00;92910.69;2507544;23;20007;-83
2023/04/26 02:25:02;;;;;;;6.47;3.17;;;;;;;3.26;100.00;92906.16;2506872;23;20003;-82
2023/04/26 02:26:03;;;;;;;3.75;3.30;;;;;;;3.24;100.00;92912.94;2494072;23;20022;-83
2023/04/26 02:27:04;;;;;;;3.92;3.15;;;;;;;3.26;100.00;92905.41;2483379;23;20352;-83
2023/04/26 02:28:05;;;;;;;6.28;3.58;;;;;;;3.26;100.00;92906.16;2494105;23;20007;-83
2023/04/26 02:29:06;;;;;;;5.72;3.28;;;;;;;3.25;100.00;92911.84;2506395;23;20002;-81
2023/04/26 02:30:08;;;;;;;5.38;3.60;;;;;;;3.27;100.00;92902.38;2506450;23;20003;-82
2023/04/26 02:31:09;;;;;;;4.28;3.42;;;;;;;3.31;100.00;92906.94;2493717;23;20010;-82
2023/04/26 02:32:12;;;;;;;4.10;2.97;;;;;;;3.33;100.00;92910.69;2483103;23;20030;-83
2023/04/26 02:33:13;;;;;;;5.45;3.45;;;;;;;3.39;100.00;92901.28;2495047;23;20448;-83
2023/04/26 02:34:14;;;;;;;6.47;3.42;;;;;;;3.41;100.00;92906.19;2505971;23;20007;-83
2023/04/26 02:35:16;;;;;;;5.70;3.55;;;;;;;3.37;100.00;92897.50;2506217;23;20007;-83
2023/04/26 02:36:17;;;;;;;5.63;3.42;;;;;;;3.34;100.00;92899.03;2494440;23;20003;-82
2023/04/26 02:37:20;;;;;;;4.57;3.75;;;;;;;3.38;100.00;92904.28;2493647;23;20529;-83
2023/04/26 02:38:25;;;;;;;6.68;4.05;;;;;;;3.40;100.00;92891.47;2483949;23;20527;-82
2023/04/26 02:39:26;;;;;;;6.22;3.90;;;;;;;3.30;100.00;92903.53;2483635;23;20055;-82
2023/04/26 02:40:29;;;;;;;6.28;4.68;;;;;;;3.23;100.00;92900.88;2494510;23;20006;-83
2023/04/26 02:41:32;;;;;;;8.90;4.07;;;;;;;3.30;100.00;92898.25;2494344;23;20007;-83
2023/04/26 02:42:34;;;;;;;4.43;3.80;;;;;;;3.23;100.00;92898.97;2494981;23;20011;-82
2023/04/26 02:43:35;;;;;;;4.78;4.03;;;;;;;3.28;100.00;92898.59;2494355;23;20420;-82
2023/04/26 02:44:38;;;;;;;5.05;4.55;;;;;;;3.30;100.00;92894.84;2505821;23;20007;-83
2023/04/26 02:45:42;;;;;;;5.10;4.03;;;;;;;3.16;100.00;92901.63;2517706;23;20081;-82
2023/04/26 02:46:43;;;;;;;5.63;3.88;;;;;;;3.17;100.00;92903.13;2518137;23;20010;-81
2023/04/26 02:47:44;;;;;;;4.53;4.05;;;;;;;3.17;100.00;92900.50;2506283;23;20017;-83
2023/04/26 02:48:45;;;;;;;7.97;4.30;;;;;;;3.26;100.00;92906.16;2483309;23;20083;-82
2023/04/26 02:49:46;;;;;;;6.97;4.47;;;;;;;3.25;100.00;92901.25;2482862;23;20007;-81
2023/04/26 02:50:47;;;;;;;5.20;4.07;;;;;;;3.32;100.00;92893.34;2482372;23;20050;-82
2023/04/26 02:51:48;;;;;;;6.75;4.35;;;;;;;3.18;100.00;92895.97;2493733;23;20019;-81
2023/04/26 02:52:49;;;;;;;5.65;4.43;;;;;;;3.18;100.00;92907.28;2506279;23;20002;-82
2023/04/26 02:53:50;;;;;;;7.43;4.13;;;;;;;3.20;100.00;92898.97;2506811;23;20006;-84
2023/04/26 02:54:51;;;;;;;6.05;4.28;;;;;;;3.23;100.00;92909.53;2493781;23;20098;-82
2023/04/26 02:55:52;;;;;;;5.70;4.72;;;;;;;3.33;100.00;92902.00;2494763;23;20042;-81
2023/04/26 02:56:54;;;;;;;5.45;4.40;;;;;;;3.23;100.00;92904.25;2494384;23;20047;-83
2023/04/26 02:57:55;;;;;;;5.22;4.00;;;;;;;3.19;100.00;92898.22;2482849;23;20122;-82
2023/04/26 02:58:56;;;;;;;6.22;4.18;;;;;;;3.26;100.00;92897.50;2482630;23;20004;-83
2023/04/26 02:59:57;;;;;;;7.43;4.45;;;;;;;3.18;100.00;92890.69;2518085;23;20010;-82
2023/04/26 03:00:59;;;;;;;4.75;3.90;;;;;;;3.20;100.00;92896.31;2517799;23;20126;-81
2023/04/26 03:02:01;;;;;;;6.80;4.72;;;;;;;3.12;100.00;92894.81;2506306;23;20013;-83
2023/04/26 03:03:03;;;;;;;6.88;4.65;;;;;;;3.16;100.00;92895.56;2505043;23;20010;-81
2023/04/26 03:04:06;;;;;;;6.80;4.57;;;;;;;3.22;100.00;92902.75;2482804;23;20011;-81
2023/04/26 03:05:08;;;;;;;4.90;4.28;;;;;;;3.13;100.00;92894.44;2483179;23;20016;-83
2023/04/26 03:06:09;;;;;;;15.07;10.63;;;;;;;3.15;100.00;92896.69;2495020;23;20367;-84
2023/04/26 03:07:10;;;;;;;13.80;8.00;;;;;;;3.13;100.00;92897.09;2494122;23;20055;-83
2023/04/26 03:08:11;;;;;;;10.90;6.82;;;;;;;3.19;100.00;92898.22;2494258;23;20022;-83
2023/04/26 03:09:12;;;;;;;5.53;4.68;;;;;;;3.24;100.00;92891.81;2494330;23;20003;-82
2023/04/26 03:10:17;;;;;;;5.97;5.00;;;;;;;3.46;100.00;92885.44;2493999;23;20007;-82
2023/04/26 03:11:18;;;;;;;7.93;4.28;;;;;;;3.37;100.00;92884.28;2495245;23;20444;-82
2023/04/26 03:12:19;;;;;;;5.82;4.07;;;;;;;3.22;100.00;92891.44;2494153;23;20397;-83
2023/04/26 03:13:23;;;;;;;7.40;4.53;;;;;;;3.32;100.00;92888.06;2505915;23;20399;-82
2023/04/26 03:14:25;;;;;;;6.90;3.70;;;;;;;3.26;100.00;92886.94;2506242;23;20248;-83
2023/04/26 03:15:26;;;;;;;5.70;3.53;;;;;;;3.23;100.00;92892.94;2505850;23;20003;-82
2023/04/26 03:16:28;;;;;;;5.85;3.97;;;;;;;3.18;100.00;92885.41;2505879;23;20011;-83
2023/04/26 03:17:29;;;;;;;5.65;3.50;;;;;;;3.22;100.00;92886.91;2494389;23;20067;-83
2023/04/26 03:18:30;;;;;;;5.45;3.85;;;;;;;3.21;100.00;92882.75;2506476;23;20316;-83
2023/04/26 03:19:31;;;;;;;5.03;4.35;;;;;;;3.24;100.00;92878.59;2494623;23;20058;-83
2023/04/26 03:20:32;;;;;;;7.90;4.38;;;;;;;3.16;100.00;92875.22;2482582;23;20344;-83
2023/04/26 03:21:33;;;;;;;8.40;4.15;;;;;;;3.15;100.00;92875.56;2494582;23;20007;-83
2023/04/26 03:22:34;;;;;;;7.53;4.53;;;;;;;3.37;100.00;92876.38;2505116;23;20455;-82
2023/04/26 03:23:35;;;;;;;7.18;4.47;;;;;;;3.27;100.00;92875.97;2505702;23;20007;-84
2023/04/26 03:24:36;;;;;;;7.57;4.28;;;;;;;3.18;100.00;92877.47;2495153;23;20014;-83
2023/04/26 03:25:37;;;;;;;6.38;4.70;;;;;;;3.03;100.00;92874.06;2495164;23;20510;-82
2023/04/26 03:26:38;;;;;;;7.07;4.93;;;;;;;3.06;100.00;92875.19;2495413;23;20019;-83
2023/04/26 03:27:39;;;;;;;6.28;4.88;;;;;;;3.09;100.00;92882.34;2506555;23;20486;-83
2023/04/26 03:28:40;;;;;;;5.90;4.72;;;;;;;3.07;100.00;92868.75;2494852;23;20042;-82
2023/04/26 03:29:41;;;;;;;6.90;4.70;;;;;;;3.01;100.00;92871.75;2495188;23;20091;-81
2023/04/26 03:30:42;;;;;;;5.95;4.68;;;;;;;2.93;100.00;92870.22;2495347;23;20014;-83
2023/04/26 03:31:43;;;;;;;7.82;5.03;;;;;;;2.96;100.00;92880.06;2507040;23;20420;-83
2023/04/26 03:32:44;;;;;;;7.38;5.70;;;;;;;2.92;100.00;92883.81;2507023;23;20006;-83
2023/04/26 03:33:52;;;;;;;7.25;5.70;;;;;;;2.80;100.00;92870.94;2494755;23;20011;-82
2023/04/26 03:34:53;;;;;;;8.98;7.57;;;;;;;2.76;100.00;92874.31;2495957;23;20037;-82
2023/04/26 03:35:54;;;;;;;17.55;12.93;;;;;;;2.72;100.00;92865.66;2495328;23;20090;-81
2023/04/26 03:36:55;;;;;;;23.90;15.02;;;;;;;2.68;100.00;92875.44;2495434;23;20423;-82
2023/04/26 03:37:56;;;;;;;28.10;14.55;;;;;;;2.67;100.00;92871.28;2506930;23;20015;-83
2023/04/26 03:38:57;;;;;;;29.67;17.35;;;;;;;2.57;100.00;92866.72;2518940;23;20006;-82
2023/04/26 03:39:58;;;;;;;52.70;25.38;;;;;;;2.52;100.00;92873.09;2505953;23;20058;-81
2023/04/26 03:41:00;;;;;;;34.97;18.27;;;;;;;2.51;100.00;92874.25;2494417;23;20003;-82
2023/04/26 03:42:02;;;;;;;24.35;16.60;;;;;;;2.45;100.00;92882.88;2483258;23;20065;-83
2023/04/26 03:43:03;;;;;;;21.42;16.20;;;;;;;2.43;100.00;92877.97;2496307;23;20022;-82
2023/04/26 03:44:04;;;;;;;21.45;15.55;;;;;;;2.47;100.00;92878.00;2506865;23;20391;-83
2023/04/26 03:45:06;;;;;;;21.77;17.35;;;;;;;2.43;100.00;92877.22;2519287;23;20002;-83
2023/04/26 03:46:07;;;;;;;20.23;17.05;;;;;;;2.48;100.00;92882.13;2506640;23;20713;-83
2023/04/26 03:47:08;;;;;;;19.88;15.40;;;;;;;2.53;100.00;92879.88;2494978;23;20018;-82
2023/04/26 03:48:09;;;;;;;16.67;12.50;;;;;;;2.52;100.00;92880.28;2483640;23;20087;-82
2023/04/26 03:49:10;;;;;;;9.32;8.15;;;;;;;2.60;100.00;92883.69;2506213;23;20002;-83
2023/04/26 03:50:11;;;;;;;7.40;5.70;;;;;;;2.61;100.00;92877.28;2506737;23;20007;-81
2023/04/26 03:51:12;;;;;;;11.23;5.60;;;;;;;2.50;100.00;92875.38;2483727;23;20003;-81
2023/04/26 03:52:13;;;;;;;7.38;5.63;;;;;;;2.45;100.00;92880.97;2483069;23;20003;-83
2023/04/26 03:53:14;;;;;;;6.90;4.75;;;;;;;2.40;100.00;92870.78;2506836;23;20011;-83
2023/04/26 03:54:16;;;;;;;6.57;4.90;;;;;;;2.53;100.00;92876.50;2506340;23;20003;-83
2023/04/26 03:55:17;;;;;;;5.78;4.35;;;;;;;2.58;100.00;92876.13;2507445;23;20551;-83
2023/04/26 03:56:18;;;;;;;8.05;4.38;;;;;;;2.53;100.00;92879.88;2518793;23;20010;-82
2023/04/26 03:57:18;;;;;;;6.55;4.40;;;;;;;2.50;100.00;92878.00;2495043;23;20022;-81
2023/04/26 03:58:19;;;;;;;6.50;4.57;;;;;;;2.45;100.00;92864.41;2519091;23;20002;-83
2023/04/26 03:59:20;;;;;;;6.43;4.25;;;;;;;2.42;100.00;92881.75;2517731;23;20302;-81
2023/04/26 04:00:21;;;;;;;4.95;3.72;;;;;;;2.50;100.00;92875.38;2494312;23;20007;-82
2023/04/26 04:01:22;;;;;;;6.80;4.22;;;;;;;2.48;100.00;92874.22;2506856;23;20043;-82
2023/04/26 04:02:23;;;;;;;5.22;4.30;;;;;;;2.53;100.00;92874.63;2494933;23;20286;-82
2023/04/26 04:03:24;;;;;;;4.38;3.90;;;;;;;2.52;100.00;92869.72;2483801;23;20067;-82
2023/04/26 04:04:25;;;;;;;9.18;4.30;;;;;;;2.65;100.00;92867.50;2494907;23;20495;-83
2023/04/26 04:05:26;;;;;;;7.80;4.60;;;;;;;2.56;100.00;92869.75;2495163;23;20488;-83
2023/04/26 04:06:27;;;;;;;6.88;4.30;;;;;;;2.65;100.00;92870.16;2506618;23;20035;-82
2023/04/26 04:07:28;;;;;;;7.25;4.75;;;;;;;2.63;100.00;92869.75;2506984;23;20095;-84
2023/04/26 04:08:29;;;;;;;5.85;4.22;;;;;;;2.58;100.00;92867.47;2507592;23;20042;-82
2023/04/26 04:09:31;;;;;;;5.60;4.20;;;;;;;2.50;100.00;92875.38;2495499;23;20399;-84
2023/04/26 04:10:32;;;;;;;7.45;4.88;;;;;;;2.50;100.00;92872.75;2495309;23;20010;-81
2023/04/26 04:11:33;;;;;;;6.30;4.40;;;;;;;2.43;100.00;92877.97;2497389;23;20431;-82
2023/04/26 04:12:34;;;;;;;6.13;4.53;;;;;;;2.38;100.00;92878.31;2494236;23;20003;-82
2023/04/26 04:13:35;;;;;;;7.75;4.53;;;;;;;2.36;100.00;92880.56;2518882;23;20010;-82
2023/04/26 04:14:36;;;;;;;6.88;4.13;;;;;;;2.38;100.00;92882.84;2518018;23;20033;-82
2023/04/26 04:15:37;;;;;;;6.90;4.63;;;;;;;2.35;100.00;92879.06;2506791;23;20006;-82
2023/04/26 04:16:38;;;;;;;9.38;5.07;;;;;;;2.38;100.00;92877.56;2519021;23;20037;-82
2023/04/26 04:17:39;;;;;;;9.25;5.43;;;;;;;2.49;100.00;92878.38;2506404;23;20038;-83
2023/04/26 04:18:40;;;;;;;7.47;4.70;;;;;;;2.42;100.00;92883.63;2506971;23;20015;-84
2023/04/26 04:19:41;;;;;;;7.35;4.95;;;;;;;2.45;100.00;92874.94;2506832;23;20034;-82
2023/04/26 04:20:42;;;;;;;9.00;5.50;;;;;;;2.38;100.00;92882.84;2518105;23;20096;-84
2023/04/26 04:21:44;;;;;;;9.73;5.35;;;;;;;2.40;100.00;92883.22;2506973;23;20094;-84
2023/04/26 04:22:45;;;;;;;9.63;4.68;;;;;;;2.41;100.00;92880.19;2516214;23;20438;-82
2023/04/26 04:23:46;;;;;;;8.75;5.22;;;;;;;2.38;100.00;92891.50;2506604;23;20007;-84
2023/04/26 04:24:47;;;;;;;9.52;4.95;;;;;;;2.48;100.00;92877.59;2502447;23;20086;-84
2023/04/26 04:25:50;;;;;;;10.45;5.28;;;;;;;2.47;100.00;92883.25;2474921;23;20020;-82
2023/04/26 04:26:53;;;;;;;8.77;5.40;;;;;;;2.41;100.00;92882.84;2488963;23;20011;-85
2023/04/26 04:27:57;;;;;;;9.40;5.05;;;;;;;2.37;100.00;92882.09;2502471;23;20584;-82
2023/04/26 04:29:07;;;;;;;9.63;5.18;;;;;;;2.28;100.00;92881.63;2502617;23;20455;-83
2023/04/26 04:30:11;;;;;;;10.27;5.10;;;;;;;2.29;100.00;92880.53;2491309;23;20043;-83
2023/04/26 04:31:13;;;;;;;9.30;6.03;;;;;;;2.23;100.00;92885.38;2500303;23;20057;-84
2023/04/26 04:32:16;;;;;;;11.35;6.97;;;;;;;2.21;100.00;92874.47;2491974;23;20206;-84
2023/04/26 04:33:17;;;;;;;13.30;9.13;;;;;;;2.22;100.00;92883.88;2491008;23;20428;-82
2023/04/26 04:34:18;;;;;;;14.57;8.70;;;;;;;2.24;100.00;92880.91;2479409;23;20016;-82
2023/04/26 04:35:21;;;;;;;13.13;7.47;;;;;;;2.22;100.00;92883.13;2478902;23;20428;-81
2023/04/26 04:36:22;;;;;;;13.77;7.88;;;;;;;2.21;100.00;92879.75;2491525;23;20019;-82
2023/04/26 04:37:24;;;;;;;11.73;7.70;;;;;;;2.27;100.00;92882.78;2490828;23;20007;-82
2023/04/26 04:38:25;;;;;;;13.25;8.40;;;;;;;2.33;100.00;92883.16;2480295;23;20239;-83
2023/04/26 04:39:26;;;;;;;9.55;7.30;;;;;;;2.24;100.00;92884.28;2479557;23;20087;-82
2023/04/26 04:40:27;;;;;;;10.98;7.05;;;;;;;2.22;100.00;92883.13;2491602;23;20499;-83
2023/04/26 04:41:28;;;;;;;11.00;7.88;;;;;;;2.31;100.00;92886.19;2490826;23;20474;-83
2023/04/26 04:42:29;;;;;;;10.60;8.60;;;;;;;2.25;100.00;92882.41;2490973;23;20019;-83
2023/04/26 04:43:30;;;;;;;10.48;7.55;;;;;;;2.23;100.00;92888.03;2502213;23;20062;-83
2023/04/26 04:44:31;;;;;;;14.35;9.45;;;;;;;2.24;100.00;92875.63;2490886;23;20431;-85
2023/04/26 04:45:32;;;;;;;16.42;10.90;;;;;;;2.14;100.00;92876.28;2492898;23;20068;-82
2023/04/26 04:46:33;;;;;;;24.95;15.48;;;;;;;2.12;100.00;92875.91;2492103;23;20007;-82
2023/04/26 04:47:36;;;;;;;15.55;10.88;;;;;;;2.10;100.00;92880.78;2480405;23;20043;-82
2023/04/26 04:48:37;;;;;;;11.73;8.45;;;;;;;2.11;100.00;92875.16;2481265;23;20011;-81
2023/04/26 04:49:38;;;;;;;12.68;7.70;;;;;;;2.14;100.00;92878.94;2491772;23;20007;-83